KEWK/EWK METAR and TAF weather

Enter ICAO airport designator
Station Type Date Time Source
KEWK METAR 2019/08/22 19:56 UTC NOAA

KEWK 221956Z AUTO 19006KT 10SM BKN110 24/19 A3001 RMK AO2 SLP148 T02390189


Station Type Date Time Source
KEWK Decoded METAR 2019/08/22 19:56 UTC NOAA

Station name not available
Aug 22, 2019 - 03:56 PM EDT / 2019.08.22 1956 UTC
Wind: from the S (190 degrees) at 7 MPH (6 KT):0
Visibility: 10 mile(s):0
Sky conditions: mostly cloudy
Temperature: 75.0 F (23.9 C)
Dew Point: 66.0 F (18.9 C)
Relative Humidity: 73%
Pressure (altimeter): 30.01 in. Hg (1016 hPa)
ob: KEWK 221956Z AUTO 19006KT 10SM BKN110 24/19 A3001 RMK AO2 SLP148 T02390189
cycle: 20

Station Type Date Time Source
KEWK TAF UTC NOAA

Error!

Example: see airport list